PWSweather.com
Personal Weather Stations
Station Observations
TARRYHILL
Tarrytown, NY 10591

Tarrytown, NY 10591

Lat: 41.05185, Lon: -73.85296

Elevation: 341

Station Type: Davis Vantage Vue

www.tarrytownnyweather.com

High Low Average
Temperature 42.7°F5.9°F 35.3°F1.8°F 38.1°F3.4°F
Dew Point 39.7°F4.3°F 34.1°F1.2°F 35.9°F2.2°F
Winds 2.3 mph N3.7 mph N Calm Calm 0.2 mph 0.3 mph
Wind Gusts 3.5 mph5.6 mph -- 1.0 mph1.6 mph
Humidity 96% 79% 92%
Pressure 30.06 in1017.90 in 29.87 in1011.50 in -
Precipitation 0.14 in3.60 in - -
Hour Temp Dew Point Humidity Winds Wind Gusts Pressure Precip Precip Rate Daily Precip Total
12:00 AM 36.1°F2.3°C 34.8°F1.6°C 95% Calm Calm 1.2 mph1.9 kmh 29.89 in1012.2 mb - 0.00 in0.0 mm 0.00 in0.0 mm
12:10 AM 36.1°F2.3°C 34.8°F1.6°C 95% Calm Calm 1.2 mph1.9 kmh 29.88 in1011.9 mb - 0.00 in0.0 mm 0.00 in0.0 mm
12:20 AM 36.2°F2.3°C 34.9°F1.6°C 95% Calm Calm 1.2 mph1.9 kmh 29.88 in1011.9 mb - 0.00 in0.0 mm 0.00 in0.0 mm
12:30 AM 36.3°F2.4°C 35.0°F1.7°C 95% Calm Calm 1.2 mph1.9 kmh 29.88 in1011.9 mb - 0.00 in0.0 mm 0.00 in0.0 mm
12:40 AM 36.3°F2.4°C 35.0°F1.7°C 95% 1.2 mph NNW1.9 kmh NNW 3.5 mph5.6 kmh 29.88 in1011.9 mb - 0.00 in0.0 mm 0.00 in0.0 mm
12:50 AM 36.5°F2.5°C 35.2°F1.8°C 95% Calm Calm 3.5 mph5.6 kmh 29.88 in1011.9 mb - 0.01 in0.3 mm 0.01 in0.3 mm
01:00 AM 36.5°F2.5°C 35.2°F1.8°C 95% Calm Calm 1.2 mph1.9 kmh 29.87 in1011.5 mb - 0.00 in0.0 mm 0.01 in0.3 mm
01:10 AM 36.5°F2.5°C 35.2°F1.8°C 95% Calm Calm -- 29.87 in1011.5 mb - 0.01 in0.3 mm 0.02 in0.5 mm
01:20 AM 36.6°F2.6°C 35.3°F1.8°C 95% Calm Calm 1.2 mph1.9 kmh 29.87 in1011.5 mb - 0.01 in0.3 mm 0.03 in0.8 mm
01:30 AM 36.7°F2.6°C 35.4°F1.9°C 95% 1.2 mph NE1.9 kmh NE 1.2 mph1.9 kmh 29.87 in1011.5 mb - 0.00 in0.0 mm 0.03 in0.8 mm
01:40 AM 36.7°F2.6°C 35.4°F1.9°C 95% Calm Calm 2.3 mph3.7 kmh 29.87 in1011.5 mb - 0.00 in0.0 mm 0.03 in0.8 mm
01:50 AM 36.8°F2.7°C 35.5°F1.9°C 95% Calm Calm 1.2 mph1.9 kmh 29.87 in1011.5 mb - 0.00 in0.0 mm 0.03 in0.8 mm
02:00 AM 36.9°F2.7°C 35.6°F2.0°C 95% Calm Calm 2.3 mph3.7 kmh 29.89 in1012.2 mb - 0.01 in0.3 mm 0.04 in1.0 mm
02:10 AM 37.0°F2.8°C 35.7°F2.1°C 95% Calm Calm -- 29.89 in1012.2 mb - 0.00 in0.0 mm 0.04 in1.0 mm
02:20 AM 37.0°F2.8°C 35.7°F2.1°C 95% Calm Calm 1.2 mph1.9 kmh 29.88 in1011.9 mb - 0.01 in0.3 mm 0.05 in1.3 mm
02:30 AM 36.9°F2.7°C 35.6°F2.0°C 95% Calm Calm 1.2 mph1.9 kmh 29.89 in1012.2 mb - 0.01 in0.3 mm 0.06 in1.5 mm
02:40 AM 36.9°F2.7°C 35.6°F2.0°C 95% 2.3 mph N3.7 kmh N 3.5 mph5.6 kmh 29.89 in1012.2 mb - 0.01 in0.3 mm 0.07 in1.8 mm
02:50 AM 36.9°F2.7°C 35.6°F2.0°C 95% Calm Calm 1.2 mph1.9 kmh 29.89 in1012.2 mb - 0.01 in0.3 mm 0.08 in2.0 mm
03:00 AM 36.8°F2.7°C 35.5°F1.9°C 95% Calm Calm -- 29.89 in1012.2 mb - 0.00 in0.0 mm 0.08 in2.0 mm
03:10 AM 36.7°F2.6°C 35.4°F1.9°C 95% 1.2 mph WNW1.9 kmh WNW 1.2 mph1.9 kmh 29.89 in1012.2 mb - 0.01 in0.3 mm 0.09 in2.3 mm
03:20 AM 36.3°F2.4°C 35.0°F1.7°C 95% 1.2 mph NW1.9 kmh NW 2.3 mph3.7 kmh 29.91 in1012.9 mb - 0.00 in0.0 mm 0.09 in2.3 mm
03:30 AM 35.7°F2.1°C 34.4°F1.3°C 95% 1.2 mph NW1.9 kmh NW 2.3 mph3.7 kmh 29.91 in1012.9 mb - 0.01 in0.3 mm 0.10 in2.5 mm
03:40 AM 35.5°F1.9°C 34.2°F1.2°C 95% Calm Calm 1.2 mph1.9 kmh 29.93 in1013.5 mb - 0.00 in0.0 mm 0.10 in2.5 mm
03:50 AM 35.5°F1.9°C 34.2°F1.2°C 95% Calm Calm 1.2 mph1.9 kmh 29.92 in1013.2 mb - 0.02 in0.5 mm 0.12 in3.0 mm
04:00 AM 35.4°F1.9°C 34.1°F1.2°C 95% 1.2 mph NW1.9 kmh NW 3.5 mph5.6 kmh 29.92 in1013.2 mb - 0.01 in0.3 mm 0.13 in3.3 mm
04:10 AM 35.3°F1.8°C 34.3°F1.3°C 96% 1.2 mph NNW1.9 kmh NNW 1.2 mph1.9 kmh 29.93 in1013.5 mb - 0.00 in0.0 mm 0.13 in3.3 mm
04:20 AM 35.3°F1.8°C 34.3°F1.3°C 96% 1.2 mph NW1.9 kmh NW 1.2 mph1.9 kmh 29.93 in1013.5 mb - 0.00 in0.0 mm 0.13 in3.3 mm
04:30 AM 35.3°F1.8°C 34.3°F1.3°C 96% Calm Calm 1.2 mph1.9 kmh 29.93 in1013.5 mb - 0.00 in0.0 mm 0.13 in3.3 mm
04:40 AM 35.4°F1.9°C 34.4°F1.3°C 96% 1.2 mph N1.9 kmh N 3.5 mph5.6 kmh 29.93 in1013.5 mb - 0.00 in0.0 mm 0.13 in3.3 mm
04:50 AM 35.3°F1.8°C 34.3°F1.3°C 96% 1.2 mph N1.9 kmh N 3.5 mph5.6 kmh 29.92 in1013.2 mb - 0.00 in0.0 mm 0.13 in3.3 mm
05:00 AM 35.4°F1.9°C 34.4°F1.3°C 96% Calm Calm 1.2 mph1.9 kmh 29.92 in1013.2 mb - 0.00 in0.0 mm 0.13 in3.3 mm
05:10 AM 35.4°F1.9°C 34.4°F1.3°C 96% Calm Calm -- 29.93 in1013.5 mb - 0.00 in0.0 mm 0.13 in3.3 mm
05:20 AM 35.3°F1.8°C 34.3°F1.3°C 96% 1.2 mph NW1.9 kmh NW 1.2 mph1.9 kmh 29.94 in1013.9 mb - 0.00 in0.0 mm 0.13 in3.3 mm
05:30 AM 35.3°F1.8°C 34.3°F1.3°C 96% Calm Calm -- 29.94 in1013.9 mb - 0.00 in0.0 mm 0.13 in3.3 mm
05:40 AM 35.3°F1.8°C 34.3°F1.3°C 96% Calm Calm 1.2 mph1.9 kmh 29.95 in1014.2 mb - 0.00 in0.0 mm 0.13 in3.3 mm
05:50 AM 35.4°F1.9°C 34.4°F1.3°C 96% Calm Calm 2.3 mph3.7 kmh 29.95 in1014.2 mb - 0.00 in0.0 mm 0.13 in3.3 mm
06:00 AM 35.5°F1.9°C 34.5°F1.4°C 96% Calm Calm 1.2 mph1.9 kmh 29.96 in1014.6 mb - 0.00 in0.0 mm 0.13 in3.3 mm
06:10 AM 35.5°F1.9°C 34.5°F1.4°C 96% Calm Calm -- 29.96 in1014.6 mb - 0.00 in0.0 mm 0.13 in3.3 mm
06:20 AM 35.5°F1.9°C 34.5°F1.4°C 96% Calm Calm 1.2 mph1.9 kmh 29.96 in1014.6 mb - 0.00 in0.0 mm 0.13 in3.3 mm
06:30 AM 35.5°F1.9°C 34.5°F1.4°C 96% 1.2 mph NW1.9 kmh NW 2.3 mph3.7 kmh 29.96 in1014.6 mb - 0.00 in0.0 mm 0.13 in3.3 mm
06:40 AM 35.6°F2.0°C 34.6°F1.4°C 96% Calm Calm -- 29.96 in1014.6 mb - 0.00 in0.0 mm 0.13 in3.3 mm
06:50 AM 35.7°F2.1°C 34.7°F1.5°C 96% Calm Calm -- 29.96 in1014.6 mb - 0.00 in0.0 mm 0.13 in3.3 mm
07:00 AM 35.7°F2.1°C 34.7°F1.5°C 96% Calm Calm -- 29.96 in1014.6 mb - 0.00 in0.0 mm 0.13 in3.3 mm
07:10 AM 35.8°F2.1°C 34.8°F1.6°C 96% Calm Calm 1.2 mph1.9 kmh 29.96 in1014.6 mb - 0.00 in0.0 mm 0.13 in3.3 mm
07:20 AM 35.8°F2.1°C 34.8°F1.6°C 96% Calm Calm 1.2 mph1.9 kmh 29.96 in1014.6 mb - 0.00 in0.0 mm 0.13 in3.3 mm
07:30 AM 35.8°F2.1°C 34.8°F1.6°C 96% Calm Calm -- 29.97 in1014.9 mb - 0.00 in0.0 mm 0.13 in3.3 mm
07:40 AM 35.9°F2.2°C 34.9°F1.6°C 96% Calm Calm -- 29.97 in1014.9 mb - 0.00 in0.0 mm 0.13 in3.3 mm
07:50 AM 36.0°F2.2°C 35.0°F1.7°C 96% Calm Calm -- 29.97 in1014.9 mb - 0.00 in0.0 mm 0.13 in3.3 mm
08:00 AM 36.0°F2.2°C 35.0°F1.7°C 96% Calm Calm -- 29.98 in1015.2 mb - 0.00 in0.0 mm 0.13 in3.3 mm
08:10 AM 36.1°F2.3°C 35.1°F1.7°C 96% Calm Calm -- 29.98 in1015.2 mb - 0.00 in0.0 mm 0.13 in3.3 mm
08:20 AM 36.3°F2.4°C 35.3°F1.8°C 96% Calm Calm -- 29.99 in1015.6 mb - 0.00 in0.0 mm 0.13 in3.3 mm
08:30 AM 36.4°F2.4°C 35.4°F1.9°C 96% Calm Calm 1.2 mph1.9 kmh 30.00 in1015.9 mb - 0.00 in0.0 mm 0.13 in3.3 mm
08:40 AM 36.5°F2.5°C 35.5°F1.9°C 96% Calm Calm -- 30.00 in1015.9 mb - 0.00 in0.0 mm 0.13 in3.3 mm
08:50 AM 36.7°F2.6°C 35.7°F2.1°C 96% Calm Calm -- 30.01 in1016.3 mb - 0.00 in0.0 mm 0.13 in3.3 mm
09:00 AM 36.7°F2.6°C 35.7°F2.1°C 96% Calm Calm 1.2 mph1.9 kmh 30.02 in1016.6 mb - 0.00 in0.0 mm 0.13 in3.3 mm
09:10 AM 36.8°F2.7°C 35.8°F2.1°C 96% Calm Calm -- 30.02 in1016.6 mb - 0.00 in0.0 mm 0.13 in3.3 mm
09:20 AM 36.8°F2.7°C 35.7°F2.1°C 96% Calm Calm -- 30.02 in1016.6 mb - 0.00 in0.0 mm 0.13 in3.3 mm
09:30 AM 36.9°F2.7°C 35.8°F2.1°C 96% Calm Calm 1.2 mph1.9 kmh 30.03 in1016.9 mb - 0.00 in0.0 mm 0.13 in3.3 mm
09:40 AM 36.9°F2.7°C 35.9°F2.2°C 96% Calm Calm -- 30.03 in1016.9 mb - 0.01 in0.3 mm 0.14 in3.6 mm
09:50 AM 37.2°F2.9°C 36.1°F2.3°C 96% Calm Calm -- 30.02 in1016.6 mb - 0.00 in0.0 mm 0.14 in3.6 mm
10:00 AM 37.3°F2.9°C 36.3°F2.4°C 96% Calm Calm 2.3 mph3.7 kmh 30.03 in1016.9 mb - 0.00 in0.0 mm 0.14 in3.6 mm
10:10 AM 37.5°F3.1°C 36.5°F2.5°C 96% Calm Calm 1.2 mph1.9 kmh 30.03 in1016.9 mb - 0.00 in0.0 mm 0.14 in3.6 mm
10:20 AM 37.9°F3.3°C 36.9°F2.7°C 96% Calm Calm 1.2 mph1.9 kmh 30.03 in1016.9 mb - 0.00 in0.0 mm 0.14 in3.6 mm
10:30 AM 38.2°F3.4°C 37.1°F2.8°C 96% Calm Calm 1.2 mph1.9 kmh 30.02 in1016.6 mb - 0.00 in0.0 mm 0.14 in3.6 mm
10:40 AM 38.1°F3.4°C 37.1°F2.8°C 96% Calm Calm 1.2 mph1.9 kmh 30.01 in1016.3 mb - 0.00 in0.0 mm 0.14 in3.6 mm
10:50 AM 38.2°F3.4°C 37.2°F2.9°C 96% Calm Calm -- 30.01 in1016.3 mb - 0.00 in0.0 mm 0.14 in3.6 mm
11:00 AM 38.1°F3.4°C 36.8°F2.7°C 95% Calm Calm 1.2 mph1.9 kmh 30.01 in1016.3 mb - 0.00 in0.0 mm 0.14 in3.6 mm
11:10 AM 38.2°F3.4°C 36.9°F2.7°C 95% Calm Calm 2.3 mph3.7 kmh 30.00 in1015.9 mb - 0.00 in0.0 mm 0.14 in3.6 mm
11:20 AM 38.1°F3.4°C 36.8°F2.7°C 95% Calm Calm -- 29.99 in1015.6 mb - 0.00 in0.0 mm 0.14 in3.6 mm
11:30 AM 38.5°F3.6°C 37.5°F3.1°C 96% Calm Calm 1.2 mph1.9 kmh 29.99 in1015.6 mb - 0.00 in0.0 mm 0.14 in3.6 mm
11:40 AM 38.7°F3.7°C 37.7°F3.2°C 96% Calm Calm 1.2 mph1.9 kmh 29.99 in1015.6 mb - 0.00 in0.0 mm 0.14 in3.6 mm
11:50 AM 38.6°F3.7°C 37.3°F2.9°C 95% Calm Calm 1.2 mph1.9 kmh 29.99 in1015.6 mb - 0.00 in0.0 mm 0.14 in3.6 mm
12:00 PM 38.8°F3.8°C 37.5°F3.1°C 95% Calm Calm -- 29.99 in1015.6 mb - 0.00 in0.0 mm 0.14 in3.6 mm
12:10 PM 38.8°F3.8°C 37.5°F3.1°C 95% Calm Calm 2.3 mph3.7 kmh 29.99 in1015.6 mb - 0.00 in0.0 mm 0.14 in3.6 mm
12:20 PM 38.9°F3.8°C 37.6°F3.1°C 95% Calm Calm -- 29.99 in1015.6 mb - 0.00 in0.0 mm 0.14 in3.6 mm
12:30 PM 39.2°F4.0°C 37.9°F3.3°C 95% Calm Calm 1.2 mph1.9 kmh 29.98 in1015.2 mb - 0.00 in0.0 mm 0.14 in3.6 mm
12:40 PM 39.5°F4.2°C 38.2°F3.4°C 95% Calm Calm 1.2 mph1.9 kmh 29.97 in1014.9 mb - 0.00 in0.0 mm 0.14 in3.6 mm
12:50 PM 39.3°F4.1°C 37.7°F3.2°C 94% Calm Calm 1.2 mph1.9 kmh 29.98 in1015.2 mb - 0.00 in0.0 mm 0.14 in3.6 mm
01:00 PM 39.6°F4.2°C 38.3°F3.5°C 95% 1.2 mph WSW1.9 kmh WSW 1.2 mph1.9 kmh 29.98 in1015.2 mb - 0.00 in0.0 mm 0.14 in3.6 mm
01:10 PM 39.9°F4.4°C 38.3°F3.5°C 94% 1.2 mph SW1.9 kmh SW 2.3 mph3.7 kmh 29.98 in1015.2 mb - 0.00 in0.0 mm 0.14 in3.6 mm
01:20 PM 40.2°F4.6°C 38.6°F3.7°C 94% 1.2 mph W1.9 kmh W 1.2 mph1.9 kmh 29.98 in1015.2 mb - 0.00 in0.0 mm 0.14 in3.6 mm
01:30 PM 40.5°F4.7°C 38.9°F3.8°C 94% Calm Calm 2.3 mph3.7 kmh 29.98 in1015.2 mb - 0.00 in0.0 mm 0.14 in3.6 mm
01:40 PM 40.9°F4.9°C 39.0°F3.9°C 93% 1.2 mph SW1.9 kmh SW 3.5 mph5.6 kmh 29.98 in1015.2 mb - 0.00 in0.0 mm 0.14 in3.6 mm
01:50 PM 41.0°F5.0°C 38.8°F3.8°C 92% 1.2 mph WSW1.9 kmh WSW 1.2 mph1.9 kmh 29.98 in1015.2 mb - 0.00 in0.0 mm 0.14 in3.6 mm
02:00 PM 41.5°F5.3°C 39.3°F4.1°C 92% Calm Calm 2.3 mph3.7 kmh 29.98 in1015.2 mb - 0.00 in0.0 mm 0.14 in3.6 mm
02:10 PM 41.7°F5.4°C 39.5°F4.2°C 92% 1.2 mph SSE1.9 kmh SSE 2.3 mph3.7 kmh 29.98 in1015.2 mb - 0.00 in0.0 mm 0.14 in3.6 mm
02:20 PM 42.3°F5.7°C 39.6°F4.2°C 90% 1.2 mph SW1.9 kmh SW 3.5 mph5.6 kmh 29.99 in1015.6 mb - 0.00 in0.0 mm 0.14 in3.6 mm
02:30 PM 42.7°F5.9°C 39.7°F4.3°C 89% 1.2 mph WSW1.9 kmh WSW 1.2 mph1.9 kmh 29.99 in1015.6 mb - 0.00 in0.0 mm 0.14 in3.6 mm
02:40 PM 42.6°F5.9°C 39.3°F4.1°C 88% Calm Calm 2.3 mph3.7 kmh 30.00 in1015.9 mb - 0.00 in0.0 mm 0.14 in3.6 mm
02:50 PM 42.3°F5.7°C 39.0°F3.9°C 88% 1.2 mph WSW1.9 kmh WSW 2.3 mph3.7 kmh 30.00 in1015.9 mb - 0.00 in0.0 mm 0.14 in3.6 mm
03:00 PM 42.0°F5.6°C 39.0°F3.9°C 89% Calm Calm 1.2 mph1.9 kmh 30.01 in1016.3 mb - 0.00 in0.0 mm 0.14 in3.6 mm
03:10 PM 41.9°F5.5°C 39.2°F4.0°C 90% Calm Calm -- 30.00 in1015.9 mb - 0.00 in0.0 mm 0.14 in3.6 mm
03:20 PM 42.1°F5.6°C 39.4°F4.1°C 90% Calm Calm -- 30.00 in1015.9 mb - 0.00 in0.0 mm 0.14 in3.6 mm
03:30 PM 42.1°F5.6°C 39.1°F3.9°C 89% Calm Calm 1.2 mph1.9 kmh 30.00 in1015.9 mb - 0.00 in0.0 mm 0.14 in3.6 mm
03:40 PM 42.1°F5.6°C 39.1°F3.9°C 89% Calm Calm -- 30.00 in1015.9 mb - 0.00 in0.0 mm 0.14 in3.6 mm
03:50 PM 41.9°F5.5°C 38.6°F3.7°C 88% Calm Calm -- 30.01 in1016.3 mb - 0.00 in0.0 mm 0.14 in3.6 mm
04:00 PM 42.5°F5.8°C 39.4°F4.1°C 89% Calm Calm -- 30.01 in1016.3 mb - 0.00 in0.0 mm 0.14 in3.6 mm
04:10 PM 42.6°F5.9°C 39.0°F3.9°C 87% Calm Calm -- 30.02 in1016.6 mb - 0.00 in0.0 mm 0.14 in3.6 mm
04:20 PM 41.7°F5.4°C 38.1°F3.4°C 87% Calm Calm -- 30.02 in1016.6 mb - 0.00 in0.0 mm 0.14 in3.6 mm
04:30 PM 41.0°F5.0°C 37.7°F3.2°C 88% Calm Calm 1.2 mph1.9 kmh 30.03 in1016.9 mb - 0.00 in0.0 mm 0.14 in3.6 mm
04:40 PM 40.4°F4.7°C 37.1°F2.8°C 88% Calm Calm -- 30.04 in1017.3 mb - 0.00 in0.0 mm 0.14 in3.6 mm
04:50 PM 40.0°F4.4°C 36.2°F2.3°C 86% Calm Calm -- 30.05 in1017.6 mb - 0.00 in0.0 mm 0.14 in3.6 mm
05:00 PM 39.9°F4.4°C 35.5°F1.9°C 84% Calm Calm 1.2 mph1.9 kmh 30.05 in1017.6 mb - 0.00 in0.0 mm 0.14 in3.6 mm
05:10 PM 39.9°F4.4°C 35.1°F1.7°C 83% Calm Calm -- 30.04 in1017.3 mb - 0.00 in0.0 mm 0.14 in3.6 mm
05:20 PM 39.6°F4.2°C 34.9°F1.6°C 83% Calm Calm -- 30.05 in1017.6 mb - 0.00 in0.0 mm 0.14 in3.6 mm
05:30 PM 39.8°F4.3°C 35.1°F1.7°C 83% 1.2 mph WSW1.9 kmh WSW 3.5 mph5.6 kmh 30.05 in1017.6 mb - 0.00 in0.0 mm 0.14 in3.6 mm
05:40 PM 40.1°F4.5°C 35.1°F1.7°C 82% Calm Calm 2.3 mph3.7 kmh 30.05 in1017.6 mb - 0.00 in0.0 mm 0.14 in3.6 mm
05:50 PM 40.4°F4.7°C 35.0°F1.7°C 81% 1.2 mph SW1.9 kmh SW 2.3 mph3.7 kmh 30.05 in1017.6 mb - 0.00 in0.0 mm 0.14 in3.6 mm
06:00 PM 40.6°F4.8°C 34.9°F1.6°C 80% Calm Calm -- 30.05 in1017.6 mb - 0.00 in0.0 mm 0.14 in3.6 mm
06:10 PM 40.8°F4.9°C 34.8°F1.6°C 79% 1.2 mph WSW1.9 kmh WSW 3.5 mph5.6 kmh 30.05 in1017.6 mb - 0.00 in0.0 mm 0.14 in3.6 mm
06:20 PM 40.8°F4.9°C 35.1°F1.7°C 80% Calm Calm -- 30.05 in1017.6 mb - 0.00 in0.0 mm 0.14 in3.6 mm
06:30 PM 40.8°F4.9°C 35.4°F1.9°C 81% 1.2 mph SSW1.9 kmh SSW 1.2 mph1.9 kmh 30.05 in1017.6 mb - 0.00 in0.0 mm 0.14 in3.6 mm
06:40 PM 40.9°F4.9°C 35.5°F1.9°C 81% 1.2 mph SW1.9 kmh SW 3.5 mph5.6 kmh 30.05 in1017.6 mb - 0.00 in0.0 mm 0.14 in3.6 mm
06:50 PM 41.0°F5.0°C 35.3°F1.8°C 80% 1.2 mph SW1.9 kmh SW 1.2 mph1.9 kmh 30.05 in1017.6 mb - 0.00 in0.0 mm 0.14 in3.6 mm
07:00 PM 40.9°F4.9°C 35.5°F1.9°C 81% Calm Calm 1.2 mph1.9 kmh 30.05 in1017.6 mb - 0.00 in0.0 mm 0.14 in3.6 mm
07:10 PM 40.8°F4.9°C 35.4°F1.9°C 81% Calm Calm 1.2 mph1.9 kmh 30.05 in1017.6 mb - 0.00 in0.0 mm 0.14 in3.6 mm
07:20 PM 40.4°F4.7°C 35.3°F1.8°C 82% Calm Calm -- 30.06 in1017.9 mb - 0.00 in0.0 mm 0.14 in3.6 mm
07:30 PM 40.3°F4.6°C 35.2°F1.8°C 82% Calm Calm 1.2 mph1.9 kmh 30.05 in1017.6 mb - 0.00 in0.0 mm 0.14 in3.6 mm
07:40 PM 39.9°F4.4°C 35.2°F1.8°C 83% Calm Calm -- 30.05 in1017.6 mb - 0.00 in0.0 mm 0.14 in3.6 mm
07:50 PM 40.1°F4.5°C 35.4°F1.9°C 83% Calm Calm 1.2 mph1.9 kmh 30.05 in1017.6 mb - 0.00 in0.0 mm 0.14 in3.6 mm
08:00 PM 39.7°F4.3°C 35.6°F2.0°C 85% Calm Calm 1.2 mph1.9 kmh 30.05 in1017.6 mb - 0.00 in0.0 mm 0.14 in3.6 mm
08:10 PM 39.7°F4.3°C 35.3°F1.8°C 84% Calm Calm -- 30.05 in1017.6 mb - 0.00 in0.0 mm 0.14 in3.6 mm
08:20 PM 38.7°F3.7°C 34.9°F1.6°C 86% Calm Calm -- 30.04 in1017.3 mb - 0.00 in0.0 mm 0.14 in3.6 mm
08:30 PM 38.3°F3.5°C 34.8°F1.6°C 87% Calm Calm -- 30.05 in1017.6 mb - 0.00 in0.0 mm 0.14 in3.6 mm
08:40 PM 38.6°F3.7°C 35.3°F1.8°C 88% Calm Calm -- 30.04 in1017.3 mb - 0.00 in0.0 mm 0.14 in3.6 mm
08:50 PM 37.9°F3.3°C 34.7°F1.5°C 88% Calm Calm -- 30.04 in1017.3 mb - 0.00 in0.0 mm 0.14 in3.6 mm
09:00 PM 37.4°F3.0°C 34.5°F1.4°C 89% Calm Calm -- 30.04 in1017.3 mb - 0.00 in0.0 mm 0.14 in3.6 mm
09:10 PM 37.1°F2.8°C 34.4°F1.3°C 90% Calm Calm -- 30.04 in1017.3 mb - 0.00 in0.0 mm 0.14 in3.6 mm
09:20 PM 36.8°F2.7°C 34.1°F1.2°C 90% Calm Calm -- 30.05 in1017.6 mb - 0.00 in0.0 mm 0.14 in3.6 mm
09:30 PM 37.3°F2.9°C 34.6°F1.4°C 90% Calm Calm -- 30.04 in1017.3 mb - 0.00 in0.0 mm 0.14 in3.6 mm
09:40 PM 37.4°F3.0°C 34.7°F1.5°C 90% Calm Calm -- 30.04 in1017.3 mb - 0.00 in0.0 mm 0.14 in3.6 mm
09:50 PM 37.4°F3.0°C 35.0°F1.7°C 91% Calm Calm -- 30.04 in1017.3 mb - 0.00 in0.0 mm 0.14 in3.6 mm
10:00 PM 37.3°F2.9°C 34.9°F1.6°C 91% Calm Calm -- 30.04 in1017.3 mb - 0.00 in0.0 mm 0.14 in3.6 mm
10:10 PM 37.5°F3.1°C 35.1°F1.7°C 91% Calm Calm -- 30.04 in1017.3 mb - 0.00 in0.0 mm 0.14 in3.6 mm
10:20 PM 37.8°F3.2°C 35.4°F1.9°C 91% Calm Calm -- 30.04 in1017.3 mb - 0.00 in0.0 mm 0.14 in3.6 mm
10:30 PM 38.1°F3.4°C 35.7°F2.1°C 91% Calm Calm -- 30.04 in1017.3 mb - 0.00 in0.0 mm 0.14 in3.6 mm
10:40 PM 37.8°F3.2°C 35.1°F1.7°C 90% Calm Calm -- 30.05 in1017.6 mb - 0.00 in0.0 mm 0.14 in3.6 mm
10:50 PM 37.6°F3.1°C 35.2°F1.8°C 91% Calm Calm -- 30.04 in1017.3 mb - 0.00 in0.0 mm 0.14 in3.6 mm
11:00 PM 37.3°F2.9°C 34.9°F1.6°C 91% Calm Calm -- 30.04 in1017.3 mb - 0.00 in0.0 mm 0.14 in3.6 mm
11:10 PM 37.2°F2.9°C 35.1°F1.7°C 92% Calm Calm -- 30.04 in1017.3 mb - 0.00 in0.0 mm 0.14 in3.6 mm
11:20 PM 37.4°F3.0°C 35.3°F1.8°C 92% Calm Calm -- 30.04 in1017.3 mb - 0.00 in0.0 mm 0.14 in3.6 mm
11:30 PM 37.7°F3.2°C 35.6°F2.0°C 92% Calm Calm -- 30.04 in1017.3 mb - 0.00 in0.0 mm 0.14 in3.6 mm
11:40 PM 37.7°F3.2°C 35.6°F2.0°C 92% Calm Calm -- 30.03 in1016.9 mb - 0.00 in0.0 mm 0.14 in3.6 mm
11:50 PM 37.4°F3.0°C 35.0°F1.7°C 91% Calm Calm -- 30.02 in1016.6 mb - 0.00 in0.0 mm 0.14 in3.6 mm